»·PEaware :: N1SC KJAC-KCPR

N1SC :: KJAC-KCPR

FLIGHT INFORMATION

Flight Status: Arrived
Operator: Privately registered:
United States
More flights under this callsign
Pilot: Chris C. (10181)
Aircraft: PIPER PA-42-720 CHEYENNE 3
(PAY3)
More flights by this aircraft type
Origin: KJAC Jackson Hole
United States
Destination: KCPR Natrona Co Intl
United States
More flights between these airports :: More routes between these airports
Route: ALPIN2 SWEAT
File this flight plan on PilotEdge
Remarks:
Altitude:
(Current/Filed)
21,000ft
Speed:
(Current/Filed)
310kts
Departed: 08-Feb-18 10:24 AM
Arrived: 08-Feb-18 11:24 AM
Distance/Time
Traveled:
192nm/1:00
Distance/Time
To Go:
Arrived

Flight Plot

Page will automatically refresh every two minutes.

Flight plan parsing failed; only flown route is shown


Map Options




Map Legend


Flown Route
Filed Route
Departure Airport
Arrival Airport
Navaid (VOR, NDB)
Fix

Horizontal Profiles

Position Reports

Time Latitude Longitude Heading Altitude Ground
Speed
08-Feb-18 10:16 43.599044 -110.739041 136 6455ft 0kts
08-Feb-18 10:17 43.599044 -110.739041 136 6455ft 0kts
08-Feb-18 10:18 43.599044 -110.739041 136 6455ft 0kts
08-Feb-18 10:19 43.599044 -110.739041 136 6455ft 0kts
08-Feb-18 10:20 43.599044 -110.739041 136 6455ft 0kts
08-Feb-18 10:21 43.599044 -110.739041 136 6455ft 0kts
08-Feb-18 10:22 43.599044 -110.739041 136 6455ft 0kts
08-Feb-18 10:23 43.599044 -110.739041 136 6455ft 0kts
08-Feb-18 10:24 43.598963 -110.738985 177 6455ft 7kts
08-Feb-18 10:25 43.599987 -110.739762 19 6455ft 11kts
08-Feb-18 10:26 43.604315 -110.737638 18 6455ft 21kts
08-Feb-18 10:27 43.611141 -110.734316 18 6455ft 28kts
08-Feb-18 10:28 43.614906 -110.732638 341 6455ft 0kts
08-Feb-18 10:29 43.614906 -110.732639 341 6455ft 0kts
08-Feb-18 10:30 43.614638 -110.734183 198 6455ft 5kts
08-Feb-18 10:31 43.594376 -110.743776 201 6883ft 130kts
08-Feb-18 10:32 43.558703 -110.761934 197 8692ft 147kts
08-Feb-18 10:33 43.518375 -110.775166 203 11070ft 153kts
08-Feb-18 10:34 43.477368 -110.794929 238 12773ft 172kts
08-Feb-18 10:35 43.424558 -110.828803 208 13321ft 235kts
08-Feb-18 10:36 43.361963 -110.859899 210 14199ft 240kts
08-Feb-18 10:37 43.298565 -110.891492 210 15201ft 243kts
08-Feb-18 10:38 43.234175 -110.923365 210 16200ft 249kts
08-Feb-18 10:39 43.168802 -110.955649 211 17197ft 250kts
08-Feb-18 10:40 43.103109 -110.987399 203 18194ft 255kts
08-Feb-18 10:41 43.050587 -110.924625 88 19197ft 292kts
08-Feb-18 10:42 43.050494 -110.813663 83 20204ft 291kts
08-Feb-18 10:43 43.019828 -110.712371 134 21027ft 303kts
08-Feb-18 10:44 42.958579 -110.626795 137 21065ft 325kts
08-Feb-18 10:45 42.893498 -110.537320 137 21064ft 336kts
08-Feb-18 10:46 42.827231 -110.446416 137 21061ft 339kts
08-Feb-18 10:47 42.760601 -110.355307 137 21060ft 339kts
08-Feb-18 10:48 42.693748 -110.264197 137 21057ft 339kts
08-Feb-18 10:49 42.627141 -110.173713 137 21052ft 338kts
08-Feb-18 10:50 42.576081 -110.069878 92 21058ft 334kts
08-Feb-18 10:51 42.567073 -109.944427 92 21051ft 335kts
08-Feb-18 10:52 42.557347 -109.818938 92 21058ft 335kts
08-Feb-18 10:53 42.547511 -109.693061 92 21050ft 335kts
08-Feb-18 10:54 42.537568 -109.567538 92 21038ft 335kts
08-Feb-18 10:55 42.527483 -109.442004 92 21019ft 335kts
08-Feb-18 10:56 42.517342 -109.317511 92 21246ft 331kts
08-Feb-18 10:57 42.507032 -109.192601 92 21218ft 335kts
08-Feb-18 10:58 42.496522 -109.067037 92 21191ft 336kts
08-Feb-18 10:59 42.485829 -108.940966 92 21163ft 336kts
08-Feb-18 11:00 42.475036 -108.815386 92 21150ft 336kts
08-Feb-18 11:01 42.464085 -108.689613 92 21129ft 335kts
08-Feb-18 11:02 42.453042 -108.564412 93 21121ft 334kts
08-Feb-18 11:03 42.446523 -108.440096 72 21128ft 324kts
08-Feb-18 11:04 42.473923 -108.325392 64 21133ft 319kts
08-Feb-18 11:05 42.501500 -108.211123 65 21092ft 321kts
08-Feb-18 11:06 42.529810 -108.093307 65 20169ft 335kts
08-Feb-18 11:07 42.558395 -107.973350 65 19168ft 330kts
08-Feb-18 11:08 42.586347 -107.855619 65 18170ft 327kts
08-Feb-18 11:09 42.614172 -107.737839 66 17168ft 327kts
08-Feb-18 11:10 42.641879 -107.619932 66 16170ft 329kts
08-Feb-18 11:11 42.669403 -107.502205 66 15185ft 326kts
08-Feb-18 11:12 42.696136 -107.386925 66 14972ft 312kts
08-Feb-18 11:13 42.722185 -107.275319 66 14964ft 311kts
08-Feb-18 11:14 42.747924 -107.162808 65 14955ft 312kts
08-Feb-18 11:15 42.778382 -107.051887 60 14523ft 310kts
08-Feb-18 11:16 42.810478 -106.944401 60 13824ft 304kts
08-Feb-18 11:17 42.842147 -106.837641 60 13124ft 302kts
08-Feb-18 11:18 42.873448 -106.732134 60 12424ft 299kts
08-Feb-18 11:19 42.909993 -106.633257 42 11729ft 284kts
08-Feb-18 11:20 42.961079 -106.551814 40 11029ft 284kts
08-Feb-18 11:21 43.015481 -106.471163 39 10335ft 292kts
08-Feb-18 11:22 43.072431 -106.391883 40 9633ft 292kts
08-Feb-18 11:23 43.130331 -106.314295 43 8973ft 287kts
08-Feb-18 11:24 43.121118 -106.224014 158 8897ft 256kts
08-Feb-18 11:25 43.059645 -106.240721 214 8898ft 223kts
08-Feb-18 11:26 43.015105 -106.292585 229 8389ft 183kts
08-Feb-18 11:27 42.986086 -106.334566 227 7306ft 120kts
08-Feb-18 11:28 42.964690 -106.376142 228 7025ft 143kts
08-Feb-18 11:28 42.943530 -106.409935 222 6453ft 135kts
08-Feb-18 11:30 42.916537 -106.444703 224 5484ft 103kts
08-Feb-18 11:31 42.907329 -106.455221 161 5351ft 0kts
08-Feb-18 11:31 42.907328 -106.455220 161 5351ft 0kts

Navigation Log

Ident Type
Flight plan parsing failed, navigation log unavailable